Mobile Downtown Airport
KBFM : now visible

Airfield :











YOU CAN JOIN US ON...

 
LOGIN :

Register | Disclaimer

   EN    FR    IT 

 









Legend :    VFR   Marginal VFR   IFR   Intensive IFR   Very Intensive IFR
Visi :
Ceiling :
>= 8 km
>= 3000ft
5 to 8 km
1000 to 3000 ft
1500m to 5 km
500 to 1000 ft
800 to 1500m
200 to 500 ft
< 800m
< 200 ft
Symbols :   Thunderstorms  Fog  Heavy snow  Heavy precipitations  Wind > 20 kt






- Airport Elevation : 26 ft


KBFM - Mobile Downtown

CURRENT METAR :
  • 301953Z 08006KT 10SM CLR 28/22 A3010 RMK AO2 SLP191 T02780222

EXPIRED METARs :
  • 301853Z 07007KT 10SM FEW020 27/22 A3012 RMK AO2 SLP200 T02670222
  • 301753Z 06007KT 10SM FEW008 26/23 A3016 RMK AO2 RAE07 SLP211 P0000 60025 T02610228 10261 20233 56002

TAF KBFM
Valid from the 30 at 18:00 until the 01 at 18:00 UTC


301741Z 3018/0118 08013KT P6SM -RA VCTS FEW005 SCT030CB BKN080
FM302100 14008KT P6SM SCT040 BKN090
FM010100 11005KT P6SM SCT030 BKN250
FM010900 10005KT P6SM VCTS BKN040CB OVC100
FM011300 10005KT P6SM VCTS OVC040CB
KZHU FIR / North America



MET'MAP, your aeronautical weather chart ! - Copyright ORBIFLY December 2007 - Disclaimer

ORBIFLY MET'MAP TEAM :

Programming & Development : Alexandra Zaïnal
Original concept : Baudouin d'Aumeries
Technical & hardware support : Manuel Goepfert
Assistance : Marc-Olivier Méhu




SOURCES & CREDITS :

   NOAA       Earth
Advisory